ADDS METAR Data INFO
IDs: Format: Raw Decoded Include TAF

Data at: 1333 UTC 25 Sep 2017

K6R3 251315Z AUTO 00000KT 5SM BR CLR 22/22 A2992 RMK AO2 T02240215
K6R3 251255Z AUTO 00000KT 5SM BR SCT021 22/21 A2992 RMK AO2 T02170210
K6R3 251235Z AUTO 00000KT 4SM BR SCT021 22/21 A2991 RMK AO2 T02150209
K6R3 251215Z AUTO 00000KT 7SM SCT023 22/21 A2991 RMK AO2 T02150208
K6R3 251155Z AUTO 00000KT 5SM BR SCT023 21/21 A2991 RMK AO2 T02120207 10220 20203
K6R3 251135Z AUTO 00000KT 5SM BR CLR 21/21 A2991 RMK AO2 T02120206
K6R3 251115Z AUTO 00000KT 5SM BR CLR 21/21 A2990 RMK AO2 T02140207
K6R3 251055Z AUTO 00000KT 7SM CLR 22/21 A2989 RMK AO2 T02160210
K6R3 251035Z AUTO 00000KT 5SM BR CLR 22/21 A2988 RMK AO2 T02160211
K6R3 251015Z AUTO 00000KT 4SM BR CLR 21/21 A2988 RMK AO2 T02140209
K6R3 250955Z AUTO 00000KT 4SM BR CLR 21/21 A2988 RMK AO2 T02120206
K6R3 250935Z AUTO 00000KT 5SM BR SCT021 22/21 A2988 RMK AO2 T02170212
K6R3 250915Z AUTO 00000KT 4SM BR BKN021 22/21 A2988 RMK AO2 T02160211
K6R3 250855Z AUTO 00000KT 5SM BR CLR 21/20 A2988 RMK AO2 T02070202
K6R3 250835Z AUTO 00000KT 2 1/2SM BR CLR 21/20 A2989 RMK AO2 VIS 1V5 T02060201
K6R3 250815Z AUTO 00000KT 4SM BR CLR 20/20 A2989 RMK AO2 T02040198
K6R3 250755Z AUTO 00000KT 7SM CLR 20/20 A2989 RMK AO2 T02030196
K6R3 250735Z AUTO 00000KT 5SM BR CLR 21/20 A2989 RMK AO2 T02050198
K6R3 250715Z AUTO 00000KT 7SM CLR 21/20 A2989 RMK AO2 T02050198
K6R3 250655Z AUTO 00000KT 7SM CLR 21/20 A2989 RMK AO2 T02070200
K6R3 250635Z AUTO 00000KT 5SM BR CLR 21/20 A2989 RMK AO2 T02080201
K6R3 250615Z AUTO 00000KT 5SM BR CLR 21/20 A2990 RMK AO2 T02090202
K6R3 250555Z AUTO 00000KT 7SM CLR 21/20 A2990 RMK AO2 T02100202 10245 20210 403250202
K6R3 250535Z AUTO 00000KT 5SM BR CLR 21/20 A2990 RMK AO2 T02100203
K6R3 250515Z AUTO 00000KT 4SM BR CLR 21/21 A2991 RMK AO2 T02120205
K6R3 250455Z AUTO 00000KT 4SM BR CLR 21/21 A2991 RMK AO2 T02120205
K6R3 250435Z AUTO 00000KT 5SM BR CLR 22/21 A2991 RMK AO2 T02150207
K6R3 250415Z AUTO 00000KT 5SM BR CLR 22/21 A2991 RMK AO2 T02160208
K6R3 250355Z AUTO 00000KT 5SM BR CLR 22/21 A2991 RMK AO2 T02200210
K6R3 250335Z AUTO 00000KT 5SM BR CLR 22/21 A2991 RMK AO2 T02200210
K6R3 250315Z AUTO 00000KT 7SM CLR 22/21 A2992 RMK AO2 T02220213
K6R3 250255Z AUTO 00000KT 5SM BR SCT110 22/21 A2991 RMK AO2 T02240213
K6R3 250235Z AUTO 00000KT 7SM SCT110 23/22 A2991 RMK AO2 T02270216
K6R3 250215Z AUTO 00000KT 7SM CLR 23/22 A2991 RMK AO2 T02270215
K6R3 250155Z AUTO 00000KT 7SM CLR 23/22 A2990 RMK AO2 T02300218
K6R3 250135Z AUTO 00000KT 7SM SCT110 23/22 A2989 RMK AO2 T02330220
K6R3 250115Z AUTO 00000KT 10SM SCT080 BKN110 24/22 A2989 RMK AO2 T02370221
K6R3 250055Z AUTO 00000KT 10SM SCT060 BKN080 OVC110 24/22 A2989 RMK AO2 T02410224
K6R3 250035Z AUTO 00000KT 7SM SCT055 BKN070 OVC090 24/22 A2989 RMK AO2 T02420223
K6R3 250015Z AUTO 00000KT 7SM SCT055 SCT070 OVC090 25/22 A2989 RMK AO2 T02450223
K6R3 242355Z AUTO 00000KT 5SM BR SCT048 BKN055 OVC070 25/22 A2989 RMK AO2 T02450224 10325 20243
K6R3 242335Z AUTO 00000KT 7SM SCT050 BKN080 OVC110 24/23 A2988 RMK AO2 T02430226
K6R3 242315Z AUTO 19003KT 10SM DZ SCT040 BKN060 OVC075 25/22 A2988 RMK AO2 T02460221
K6R3 242255Z AUTO 17005KT 7SM SCT040 SCT049 BKN060 25/23 A2988 RMK AO2 T02540225
K6R3 242235Z AUTO 17003KT 10SM -RA SCT031 SCT042 BKN070 25/23 A2987 RMK AO2 T02520225
K6R3 242215Z AUTO 18003KT 10SM -RA SCT032 BKN070 OVC085 26/21 A2987 RMK AO2 T02620208
K6R3 242155Z AUTO 21005KT 10SM SCT040 BKN050 OVC070 26/21 A2987 RMK AO2 T02590209
K6R3 242135Z AUTO 21007G14KT 10SM SCT040 BKN048 OVC085 27/21 A2986 RMK AO2 T02680214
K6R3 242115Z AUTO 17006KT 7SM SCT040 SCT047 SCT060 29/21 A2986 RMK AO2 LTG DSNT S T02920214
K6R3 242055Z AUTO 00000KT 7SM SCT041 SCT070 30/21 A2986 RMK AO2 T02990212
K6R3 242035Z AUTO 13003KT 10SM CLR 32/21 A2986 RMK AO2 LTG DSNT SW T03190207
K6R3 242015Z AUTO 10003KT 10SM SCT040 SCT065 31/21 A2987 RMK AO2 T03050207
K6R3 241955Z AUTO 09003KT 10SM SCT035 SCT041 31/21 A2988 RMK AO2 T03060214
K6R3 241935Z AUTO 13003KT 5SM HZ SCT033 SCT047 SCT110 32/21 A2989 RMK AO2 T03170210
K6R3 241915Z AUTO 07004KT 7SM SCT033 SCT041 BKN050 31/21 A2990 RMK AO2 T03090214
K6R3 241855Z AUTO 00000KT 10SM SCT032 SCT041 BKN050 29/22 A2990 RMK AO2 T02940216
K6R3 241835Z AUTO 00000KT 10SM SCT032 BKN038 OVC070 29/22 A2991 RMK AO2 T02930218
K6R3 241815Z AUTO 00000KT 7SM BKN030 BKN036 BKN048 30/22 A2992 RMK AO2 T02980223
K6R3 241755Z AUTO 00000KT 7SM BKN030 BKN036 BKN046 29/22 A2993 RMK AO2 T02910220 10305 20219
K6R3 241735Z AUTO 00000KT 5SM HZ BKN030 BKN035 BKN041 30/22 A2993 RMK AO2 T02980220
K6R3 241715Z AUTO 00000KT 7SM SCT026 BKN035 BKN043 30/21 A2993 RMK AO2 T02950214
K6R3 241655Z AUTO 12003KT 10SM SCT024 SCT032 31/22 A2994 RMK AO2 T03050220
K6R3 241635Z AUTO 16004KT 7SM BKN022 BKN026 BKN032 30/23 A2994 RMK AO2 T03000225
K6R3 241615Z AUTO 00000KT 10SM SCT018 BKN025 BKN031 28/23 A2994 RMK AO2 T02830230
K6R3 241555Z AUTO 08003KT 7SM SCT015 BKN022 BKN027 28/23 A2994 RMK AO2 T02810230
K6R3 241535Z AUTO 00000KT 7SM SCT009 SCT016 28/24 A2994 RMK AO2 T02810235
K6R3 241515Z AUTO 00000KT 5SM HZ BKN007 27/23 A2995 RMK AO2 T02690234
K6R3 241455Z AUTO 11003KT 4SM BR OVC003 25/24 A2995 RMK AO2 T02540236
K6R3 241435Z AUTO 00000KT 3SM BR OVC003 24/23 A2994 RMK AO2 T02400231
K6R3 241415Z AUTO 00000KT 3SM BR OVC003 24/23 A2994 RMK AO2 T02380232
K6R3 241355Z AUTO 00000KT 3SM BR OVC003 24/23 A2993 RMK AO2 T02360231
K6R3 241335Z AUTO 00000KT 1 3/4SM BR OVC001 23/23 A2993 RMK AO2 T02310226
K6R3 241315Z AUTO 00000KT 3/4SM BR OVC001 23/22 A2993 RMK AO2 T02280223
K6R3 241255Z AUTO 00000KT 1/2SM FG OVC001 23/22 A2992 RMK AO2 T02260221
K6R3 241235Z AUTO 00000KT 1/4SM FG OVC001 23/22 A2992 RMK AO2 T02260221
K6R3 241215Z AUTO 00000KT 1/4SM FG OVC001 22/22 A2991 RMK AO2 T02230218
K6R3 241155Z AUTO 00000KT 1/4SM FG OVC001 22/21 A2991 RMK AO2 T02190214 10220 20202
K6R3 241135Z AUTO 00000KT 1 1/4SM BR OVC001 22/21 A2990 RMK AO2 T02160211
K6R3 241115Z AUTO 00000KT 4SM BR OVC001 21/20 A2990 RMK AO2 T02060200
K6R3 241055Z AUTO 00000KT 4SM BR BKN001 20/20 A2990 RMK AO2 T02040196
K6R3 241035Z AUTO 00000KT 7SM SCT001 21/20 A2990 RMK AO2 T02050198
K6R3 241015Z AUTO 00000KT 4SM BR CLR 21/20 A2990 RMK AO2 T02050198
K6R3 240955Z AUTO 00000KT 5SM BR SCT001 21/20 A2990 RMK AO2 T02060200
K6R3 240935Z AUTO 00000KT 4SM BR SCT001 20/20 A2990 RMK AO2 T02040197
K6R3 240915Z AUTO 00000KT 4SM BR CLR 21/20 A2990 RMK AO2 T02050199
K6R3 240855Z AUTO 00000KT 5SM BR CLR 21/20 A2990 RMK AO2 T02050199
K6R3 240835Z AUTO 00000KT 5SM BR CLR 21/20 A2991 RMK AO2 T02060200
K6R3 240815Z AUTO 00000KT 5SM BR CLR 21/20 A2991 RMK AO2 T02070201
K6R3 240755Z AUTO 00000KT 4SM BR CLR 21/20 A2991 RMK AO2 T02090202
K6R3 240730Z AUTO 00000KT 4SM BR CLR 21/20 A2992 RMK AO2 T02100204
K6R3 240710Z AUTO 00000KT 4SM BR CLR 21/21 A2992 RMK AO2 T02110205
K6R3 240655Z AUTO 00000KT 5SM BR CLR 21/21 A2991 RMK AO2 T02130206
K6R3 240635Z AUTO 00000KT 4SM BR CLR 21/21 A2991 RMK AO2 T02130206
K6R3 240615Z AUTO 00000KT 5SM BR CLR 22/21 A2991 RMK AO2 T02150206
K6R3 240555Z AUTO 00000KT 4SM BR CLR 22/21 A2991 RMK AO2 T02150206 10256 20215 403260202
K6R3 240535Z AUTO 00000KT 7SM CLR 22/21 A2991 RMK AO2 T02170209
K6R3 240515Z AUTO 00000KT 4SM BR CLR 22/21 A2991 RMK AO2 T02200210
K6R3 240455Z AUTO 00000KT 4SM BR CLR 22/21 A2991 RMK AO2 T02200211
K6R3 240435Z AUTO 00000KT 5SM BR CLR 22/21 A2991 RMK AO2 T02220212
K6R3 240415Z AUTO 00000KT 7SM CLR 23/22 A2991 RMK AO2 T02250215
K6R3 240355Z AUTO 00000KT 5SM BR CLR 23/22 A2990 RMK AO2 T02270216
K6R3 240335Z AUTO 00000KT 7SM CLR 23/22 A2991 RMK AO2 T02300218
K6R3 240315Z AUTO 00000KT 7SM CLR 24/22 A2991 RMK AO2 T02350221
K6R3 240255Z AUTO 00000KT 7SM CLR 24/22 A2991 RMK AO2 T02350222
K6R3 240235Z AUTO 00000KT 7SM CLR 24/22 A2991 RMK AO2 T02370223
K6R3 240215Z AUTO 00000KT 7SM CLR 24/22 A2990 RMK AO2 T02350221
K6R3 240155Z AUTO 00000KT 7SM CLR 24/22 A2990 RMK AO2 T02350222
K6R3 240135Z AUTO 00000KT 7SM CLR 24/22 A2989 RMK AO2 T02370223